sensor_id;sensor_type;location;lat;lon;timestamp;temperature;humidity
30889;DHT22;51092;50.874;7.024;2024-01-15T00:00:23;1.90;99.90
30889;DHT22;51092;50.874;7.024;2024-01-15T00:01:25;2.00;99.90
30889;DHT22;51092;50.874;7.024;2024-01-15T00:02:27;1.90;99.90
30889;DHT22;51092;50.874;7.024;2024-01-15T00:03:29;1.90;99.90
30889;DHT22;51092;50.874;7.024;2024-01-15T00:04:36;2.00;99.90
30889;DHT22;51092;50.874;7.024;2024-01-15T00:05:38;1.90;99.90
30889;DHT22;51092;50.874;7.024;2024-01-15T00:06:40;1.90;99.90
30889;DHT22;51092;50.874;7.024;2024-01-15T00:07:41;1.80;99.90
30889;DHT22;51092;50.874;7.024;2024-01-15T00:08:43;1.90;99.90
30889;DHT22;51092;50.874;7.024;2024-01-15T00:09:44;1.90;99.90
30889;DHT22;51092;50.874;7.024;2024-01-15T00:10:46;1.90;99.90
30889;DHT22;51092;50.874;7.024;2024-01-15T00:11:48;1.80;99.90
30889;DHT22;51092;50.874;7.024;2024-01-15T00:12:51;1.80;99.90
30889;DHT22;51092;50.874;7.024;2024-01-15T00:13:53;1.80;99.90
30889;DHT22;51092;50.874;7.024;2024-01-15T00:14:55;1.70;99.90
30889;DHT22;51092;50.874;7.024;2024-01-15T00:15:58;1.70;99.90
30889;DHT22;51092;50.874;7.024;2024-01-15T00:16:59;1.70;99.90
30889;DHT22;51092;50.874;7.024;2024-01-15T00:18:02;1.80;99.90
30889;DHT22;51092;50.874;7.024;2024-01-15T00:19:03;1.90;99.90
30889;DHT22;51092;50.874;7.024;2024-01-15T00:20:07;1.60;99.90
30889;DHT22;51092;50.874;7.024;2024-01-15T00:21:10;1.60;99.90
30889;DHT22;51092;50.874;7.024;2024-01-15T00:22:12;1.60;99.90
30889;DHT22;51092;50.874;7.024;2024-01-15T00:23:14;1.60;99.90
30889;DHT22;51092;50.874;7.024;2024-01-15T00:24:17;1.60;99.90
30889;DHT22;51092;50.874;7.024;2024-01-15T00:25:18;1.60;99.90
30889;DHT22;51092;50.874;7.024;2024-01-15T00:26:20;1.60;99.90
30889;DHT22;51092;50.874;7.024;2024-01-15T00:27:22;1.50;99.90
30889;DHT22;51092;50.874;7.024;2024-01-15T00:28:25;1.60;99.90
30889;DHT22;51092;50.874;7.024;2024-01-15T00:29:27;1.60;99.90
30889;DHT22;51092;50.874;7.024;2024-01-15T00:30:30;1.60;99.90
30889;DHT22;51092;50.874;7.024;2024-01-15T00:31:31;1.70;99.90
30889;DHT22;51092;50.874;7.024;2024-01-15T00:32:34;1.70;99.90
30889;DHT22;51092;50.874;7.024;2024-01-15T00:33:35;1.70;99.90
30889;DHT22;51092;50.874;7.024;2024-01-15T00:34:38;1.60;99.90
30889;DHT22;51092;50.874;7.024;2024-01-15T00:35:39;1.50;99.90
30889;DHT22;51092;50.874;7.024;2024-01-15T00:36:42;1.50;99.90
30889;DHT22;51092;50.874;7.024;2024-01-15T00:37:43;1.50;99.90
30889;DHT22;51092;50.874;7.024;2024-01-15T00:38:45;1.60;99.90
30889;DHT22;51092;50.874;7.024;2024-01-15T00:39:48;1.50;99.90
30889;DHT22;51092;50.874;7.024;2024-01-15T00:40:50;1.40;99.90
30889;DHT22;51092;50.874;7.024;2024-01-15T00:41:53;1.50;99.90
30889;DHT22;51092;50.874;7.024;2024-01-15T00:42:54;1.60;99.90
30889;DHT22;51092;50.874;7.024;2024-01-15T00:43:56;1.60;99.90
30889;DHT22;51092;50.874;7.024;2024-01-15T00:44:59;1.60;99.90
30889;DHT22;51092;50.874;7.024;2024-01-15T00:46:01;1.50;99.90
30889;DHT22;51092;50.874;7.024;2024-01-15T00:47:04;1.60;99.90
30889;DHT22;51092;50.874;7.024;2024-01-15T00:48:05;1.70;99.90
30889;DHT22;51092;50.874;7.024;2024-01-15T00:49:07;1.60;99.90
30889;DHT22;51092;50.874;7.024;2024-01-15T00:50:10;1.60;99.90
30889;DHT22;51092;50.874;7.024;2024-01-15T00:51:11;1.60;99.90
30889;DHT22;51092;50.874;7.024;2024-01-15T00:52:14;1.50;99.90
30889;DHT22;51092;50.874;7.024;2024-01-15T00:53:15;1.60;99.90
30889;DHT22;51092;50.874;7.024;2024-01-15T00:54:17;1.50;99.90
30889;DHT22;51092;50.874;7.024;2024-01-15T00:55:19;1.40;99.90
30889;DHT22;51092;50.874;7.024;2024-01-15T00:56:21;1.40;99.90
30889;DHT22;51092;50.874;7.024;2024-01-15T00:57:23;1.50;99.90
30889;DHT22;51092;50.874;7.024;2024-01-15T00:58:25;1.40;99.90
30889;DHT22;51092;50.874;7.024;2024-01-15T00:59:27;1.40;99.90
30889;DHT22;51092;50.874;7.024;2024-01-15T01:00:31;1.50;99.90
30889;DHT22;51092;50.874;7.024;2024-01-15T01:01:32;1.50;99.90
30889;DHT22;51092;50.874;7.024;2024-01-15T01:02:34;1.50;99.90
30889;DHT22;51092;50.874;7.024;2024-01-15T01:03:35;1.50;99.90
30889;DHT22;51092;50.874;7.024;2024-01-15T01:04:37;1.40;99.90
30889;DHT22;51092;50.874;7.024;2024-01-15T01:05:38;1.50;99.90
30889;DHT22;51092;50.874;7.024;2024-01-15T01:06:40;1.50;99.90
30889;DHT22;51092;50.874;7.024;2024-01-15T01:07:42;1.40;99.90
30889;DHT22;51092;50.874;7.024;2024-01-15T01:08:43;1.30;99.90
30889;DHT22;51092;50.874;7.024;2024-01-15T01:09:46;1.40;99.90
30889;DHT22;51092;50.874;7.024;2024-01-15T01:10:49;1.50;99.90
30889;DHT22;51092;50.874;7.024;2024-01-15T01:11:51;1.40;99.90
30889;DHT22;51092;50.874;7.024;2024-01-15T01:12:53;1.40;99.90
30889;DHT22;51092;50.874;7.024;2024-01-15T01:13:55;1.50;99.90
30889;DHT22;51092;50.874;7.024;2024-01-15T01:14:57;1.60;99.90
30889;DHT22;51092;50.874;7.024;2024-01-15T01:16:02;1.50;99.90
30889;DHT22;51092;50.874;7.024;2024-01-15T01:17:04;1.50;99.90
30889;DHT22;51092;50.874;7.024;2024-01-15T01:18:07;1.60;99.90
30889;DHT22;51092;50.874;7.024;2024-01-15T01:19:11;1.50;99.90
30889;DHT22;51092;50.874;7.024;2024-01-15T01:20:13;1.40;99.90
30889;DHT22;51092;50.874;7.024;2024-01-15T01:21:16;1.40;99.90
30889;DHT22;51092;50.874;7.024;2024-01-15T01:22:18;1.50;99.90
30889;DHT22;51092;50.874;7.024;2024-01-15T01:23:20;1.50;99.90
30889;DHT22;51092;50.874;7.024;2024-01-15T01:24:22;1.40;99.90
30889;DHT22;51092;50.874;7.024;2024-01-15T01:25:24;1.50;99.90
30889;DHT22;51092;50.874;7.024;2024-01-15T01:26:25;1.50;99.90
30889;DHT22;51092;50.874;7.024;2024-01-15T01:27:28;1.40;99.90
30889;DHT22;51092;50.874;7.024;2024-01-15T01:28:30;1.50;99.90
30889;DHT22;51092;50.874;7.024;2024-01-15T01:29:32;1.30;99.90
30889;DHT22;51092;50.874;7.024;2024-01-15T01:30:33;1.30;99.90
30889;DHT22;51092;50.874;7.024;2024-01-15T01:31:42;1.30;99.90
30889;DHT22;51092;50.874;7.024;2024-01-15T01:32:44;1.30;99.90
30889;DHT22;51092;50.874;7.024;2024-01-15T01:33:45;1.30;99.90
30889;DHT22;51092;50.874;7.024;2024-01-15T01:34:46;1.40;99.90
30889;DHT22;51092;50.874;7.024;2024-01-15T01:35:49;1.30;99.90
30889;DHT22;51092;50.874;7.024;2024-01-15T01:36:50;1.30;99.90
30889;DHT22;51092;50.874;7.024;2024-01-15T01:37:52;1.30;99.90
30889;DHT22;51092;50.874;7.024;2024-01-15T01:38:54;1.30;99.90
30889;DHT22;51092;50.874;7.024;2024-01-15T01:39:56;1.20;99.90
30889;DHT22;51092;50.874;7.024;2024-01-15T01:40:59;1.20;99.90
30889;DHT22;51092;50.874;7.024;2024-01-15T01:42:01;1.20;99.90
30889;DHT22;51092;50.874;7.024;2024-01-15T01:43:03;1.20;99.90
30889;DHT22;51092;50.874;7.024;2024-01-15T01:44:06;1.20;99.90
30889;DHT22;51092;50.874;7.024;2024-01-15T01:45:09;1.20;99.90
30889;DHT22;51092;50.874;7.024;2024-01-15T01:46:11;1.20;99.90
30889;DHT22;51092;50.874;7.024;2024-01-15T01:47:16;1.20;99.90
30889;DHT22;51092;50.874;7.024;2024-01-15T01:48:19;1.20;99.90
30889;DHT22;51092;50.874;7.024;2024-01-15T01:49:23;1.10;99.90
30889;DHT22;51092;50.874;7.024;2024-01-15T01:50:25;1.20;99.90
30889;DHT22;51092;50.874;7.024;2024-01-15T01:51:28;1.20;99.90
30889;DHT22;51092;50.874;7.024;2024-01-15T01:52:29;1.20;99.90
30889;DHT22;51092;50.874;7.024;2024-01-15T01:53:32;1.20;99.90
30889;DHT22;51092;50.874;7.024;2024-01-15T01:54:37;1.20;99.90
30889;DHT22;51092;50.874;7.024;2024-01-15T01:55:40;1.20;99.90
30889;DHT22;51092;50.874;7.024;2024-01-15T01:56:42;1.20;99.90
30889;DHT22;51092;50.874;7.024;2024-01-15T01:57:44;1.30;99.90
30889;DHT22;51092;50.874;7.024;2024-01-15T01:58:47;1.20;99.90
30889;DHT22;51092;50.874;7.024;2024-01-15T01:59:49;1.20;99.90
30889;DHT22;51092;50.874;7.024;2024-01-15T02:00:52;1.30;99.90
30889;DHT22;51092;50.874;7.024;2024-01-15T02:01:54;1.30;99.90
30889;DHT22;51092;50.874;7.024;2024-01-15T02:02:57;1.30;99.90
30889;DHT22;51092;50.874;7.024;2024-01-15T02:03:58;1.30;99.90
30889;DHT22;51092;50.874;7.024;2024-01-15T02:05:04;1.30;99.90
30889;DHT22;51092;50.874;7.024;2024-01-15T02:06:06;1.30;99.90
30889;DHT22;51092;50.874;7.024;2024-01-15T02:07:08;1.40;99.90
30889;DHT22;51092;50.874;7.024;2024-01-15T02:08:11;1.50;99.90
30889;DHT22;51092;50.874;7.024;2024-01-15T02:09:12;1.40;99.90
30889;DHT22;51092;50.874;7.024;2024-01-15T02:10:16;1.40;99.90
30889;DHT22;51092;50.874;7.024;2024-01-15T02:11:17;1.40;99.90
30889;DHT22;51092;50.874;7.024;2024-01-15T02:12:20;1.40;99.90
30889;DHT22;51092;50.874;7.024;2024-01-15T02:13:22;1.40;99.90
30889;DHT22;51092;50.874;7.024;2024-01-15T02:14:24;1.50;99.90
30889;DHT22;51092;50.874;7.024;2024-01-15T02:15:26;1.50;99.90
30889;DHT22;51092;50.874;7.024;2024-01-15T02:16:28;1.50;99.90
30889;DHT22;51092;50.874;7.024;2024-01-15T02:17:30;1.50;99.90
30889;DHT22;51092;50.874;7.024;2024-01-15T02:18:42;1.50;99.90
30889;DHT22;51092;50.874;7.024;2024-01-15T02:19:44;1.60;99.90
30889;DHT22;51092;50.874;7.024;2024-01-15T02:20:46;1.50;99.90
30889;DHT22;51092;50.874;7.024;2024-01-15T02:21:48;1.50;99.90
30889;DHT22;51092;50.874;7.024;2024-01-15T02:22:50;1.50;99.90
30889;DHT22;51092;50.874;7.024;2024-01-15T02:23:53;1.50;99.90
30889;DHT22;51092;50.874;7.024;2024-01-15T02:24:56;1.50;99.90
30889;DHT22;51092;50.874;7.024;2024-01-15T02:25:57;1.50;99.90
30889;DHT22;51092;50.874;7.024;2024-01-15T02:27:01;1.60;99.90
30889;DHT22;51092;50.874;7.024;2024-01-15T02:28:04;1.60;99.90
30889;DHT22;51092;50.874;7.024;2024-01-15T02:29:07;1.60;99.90
30889;DHT22;51092;50.874;7.024;2024-01-15T02:30:11;1.60;99.90
30889;DHT22;51092;50.874;7.024;2024-01-15T02:31:13;1.70;99.90
30889;DHT22;51092;50.874;7.024;2024-01-15T02:32:15;1.60;99.90
30889;DHT22;51092;50.874;7.024;2024-01-15T02:33:17;1.60;99.90
30889;DHT22;51092;50.874;7.024;2024-01-15T02:34:19;1.60;99.90
30889;DHT22;51092;50.874;7.024;2024-01-15T02:35:20;1.60;99.90
30889;DHT22;51092;50.874;7.024;2024-01-15T02:36:23;1.60;99.90
30889;DHT22;51092;50.874;7.024;2024-01-15T02:37:24;1.60;99.90
30889;DHT22;51092;50.874;7.024;2024-01-15T02:38:26;1.60;99.90
30889;DHT22;51092;50.874;7.024;2024-01-15T02:39:29;1.70;99.90
30889;DHT22;51092;50.874;7.024;2024-01-15T02:40:31;1.60;99.90
30889;DHT22;51092;50.874;7.024;2024-01-15T02:41:32;1.60;99.90
30889;DHT22;51092;50.874;7.024;2024-01-15T02:42:34;1.60;99.90
30889;DHT22;51092;50.874;7.024;2024-01-15T02:43:36;1.60;99.90
30889;DHT22;51092;50.874;7.024;2024-01-15T02:44:38;1.70;99.90
30889;DHT22;51092;50.874;7.024;2024-01-15T02:45:40;1.60;99.90
30889;DHT22;51092;50.874;7.024;2024-01-15T02:46:42;1.70;99.90
30889;DHT22;51092;50.874;7.024;2024-01-15T02:47:44;1.60;99.90
30889;DHT22;51092;50.874;7.024;2024-01-15T02:48:46;1.60;99.90
30889;DHT22;51092;50.874;7.024;2024-01-15T02:49:48;1.60;99.90
30889;DHT22;51092;50.874;7.024;2024-01-15T02:50:50;1.60;99.90
30889;DHT22;51092;50.874;7.024;2024-01-15T02:51:52;1.60;99.90
30889;DHT22;51092;50.874;7.024;2024-01-15T02:52:54;1.50;99.90
30889;DHT22;51092;50.874;7.024;2024-01-15T02:53:56;1.60;99.90
30889;DHT22;51092;50.874;7.024;2024-01-15T02:54:59;1.60;99.90
30889;DHT22;51092;50.874;7.024;2024-01-15T02:56:01;1.60;99.90
30889;DHT22;51092;50.874;7.024;2024-01-15T02:57:03;1.50;99.90
30889;DHT22;51092;50.874;7.024;2024-01-15T02:58:07;1.50;99.90
30889;DHT22;51092;50.874;7.024;2024-01-15T02:59:09;1.60;99.90
30889;DHT22;51092;50.874;7.024;2024-01-15T03:00:12;1.60;99.90
30889;DHT22;51092;50.874;7.024;2024-01-15T03:01:13;1.60;99.90
30889;DHT22;51092;50.874;7.024;2024-01-15T03:02:16;1.60;99.90
30889;DHT22;51092;50.874;7.024;2024-01-15T03:03:17;1.70;99.90
30889;DHT22;51092;50.874;7.024;2024-01-15T03:04:19;1.70;99.90
30889;DHT22;51092;50.874;7.024;2024-01-15T03:05:20;1.70;99.90
30889;DHT22;51092;50.874;7.024;2024-01-15T03:06:22;1.70;99.90
30889;DHT22;51092;50.874;7.024;2024-01-15T03:07:23;1.70;99.90
30889;DHT22;51092;50.874;7.024;2024-01-15T03:08:25;1.70;99.90
30889;DHT22;51092;50.874;7.024;2024-01-15T03:09:27;1.60;99.90
30889;DHT22;51092;50.874;7.024;2024-01-15T03:10:31;1.60;99.90
30889;DHT22;51092;50.874;7.024;2024-01-15T03:11:37;1.60;99.90
30889;DHT22;51092;50.874;7.024;2024-01-15T03:12:39;1.60;99.90
30889;DHT22;51092;50.874;7.024;2024-01-15T03:13:41;1.60;99.90
30889;DHT22;51092;50.874;7.024;2024-01-15T03:14:44;1.60;99.90
30889;DHT22;51092;50.874;7.024;2024-01-15T03:15:45;1.60;99.90
30889;DHT22;51092;50.874;7.024;2024-01-15T03:16:48;1.60;99.90
30889;DHT22;51092;50.874;7.024;2024-01-15T03:17:49;1.70;99.90
30889;DHT22;51092;50.874;7.024;2024-01-15T03:18:52;1.70;99.90
30889;DHT22;51092;50.874;7.024;2024-01-15T03:19:54;1.60;99.90
30889;DHT22;51092;50.874;7.024;2024-01-15T03:20:56;1.60;99.90
30889;DHT22;51092;50.874;7.024;2024-01-15T03:21:58;1.60;99.90
30889;DHT22;51092;50.874;7.024;2024-01-15T03:23:01;1.70;99.90
30889;DHT22;51092;50.874;7.024;2024-01-15T03:24:02;1.60;99.90
30889;DHT22;51092;50.874;7.024;2024-01-15T03:25:05;1.60;99.90
30889;DHT22;51092;50.874;7.024;2024-01-15T03:26:08;1.60;99.90
30889;DHT22;51092;50.874;7.024;2024-01-15T03:27:10;1.60;99.90
30889;DHT22;51092;50.874;7.024;2024-01-15T03:28:12;1.70;99.90
30889;DHT22;51092;50.874;7.024;2024-01-15T03:29:15;1.70;99.90
30889;DHT22;51092;50.874;7.024;2024-01-15T03:30:16;1.60;99.90
30889;DHT22;51092;50.874;7.024;2024-01-15T03:31:19;1.60;99.90
30889;DHT22;51092;50.874;7.024;2024-01-15T03:32:20;1.60;99.90
30889;DHT22;51092;50.874;7.024;2024-01-15T03:33:22;1.70;99.90
30889;DHT22;51092;50.874;7.024;2024-01-15T03:34:24;1.60;99.90
30889;DHT22;51092;50.874;7.024;2024-01-15T03:35:26;1.60;99.90
30889;DHT22;51092;50.874;7.024;2024-01-15T03:36:30;1.60;99.90
30889;DHT22;51092;50.874;7.024;2024-01-15T03:37:32;1.60;99.90
30889;DHT22;51092;50.874;7.024;2024-01-15T03:38:34;1.60;99.90
30889;DHT22;51092;50.874;7.024;2024-01-15T03:39:35;1.60;99.90
30889;DHT22;51092;50.874;7.024;2024-01-15T03:40:38;1.70;99.90
30889;DHT22;51092;50.874;7.024;2024-01-15T03:41:41;1.70;99.90
30889;DHT22;51092;50.874;7.024;2024-01-15T03:42:43;1.60;99.90
30889;DHT22;51092;50.874;7.024;2024-01-15T03:43:45;1.60;99.90
30889;DHT22;51092;50.874;7.024;2024-01-15T03:44:47;1.60;99.90
30889;DHT22;51092;50.874;7.024;2024-01-15T03:45:48;1.60;99.90
30889;DHT22;51092;50.874;7.024;2024-01-15T03:46:51;1.70;99.90
30889;DHT22;51092;50.874;7.024;2024-01-15T03:47:52;1.60;99.90
30889;DHT22;51092;50.874;7.024;2024-01-15T03:48:55;1.70;99.90
30889;DHT22;51092;50.874;7.024;2024-01-15T03:49:56;1.60;99.90
30889;DHT22;51092;50.874;7.024;2024-01-15T03:50:58;1.70;99.90
30889;DHT22;51092;50.874;7.024;2024-01-15T03:52:00;1.60;99.90
30889;DHT22;51092;50.874;7.024;2024-01-15T03:53:03;1.70;99.90
30889;DHT22;51092;50.874;7.024;2024-01-15T03:54:05;1.70;99.90
30889;DHT22;51092;50.874;7.024;2024-01-15T03:55:07;1.70;99.90
30889;DHT22;51092;50.874;7.024;2024-01-15T03:56:09;1.70;99.90
30889;DHT22;51092;50.874;7.024;2024-01-15T03:57:13;1.60;99.90
30889;DHT22;51092;50.874;7.024;2024-01-15T03:58:14;1.70;99.90
30889;DHT22;51092;50.874;7.024;2024-01-15T03:59:17;1.70;99.90
30889;DHT22;51092;50.874;7.024;2024-01-15T04:00:19;1.70;99.90
30889;DHT22;51092;50.874;7.024;2024-01-15T04:01:21;1.70;99.90
30889;DHT22;51092;50.874;7.024;2024-01-15T04:02:23;1.80;99.90
30889;DHT22;51092;50.874;7.024;2024-01-15T04:03:25;1.80;99.90
30889;DHT22;51092;50.874;7.024;2024-01-15T04:04:27;1.70;99.90
30889;DHT22;51092;50.874;7.024;2024-01-15T04:05:29;1.70;99.90
30889;DHT22;51092;50.874;7.024;2024-01-15T04:06:30;1.70;99.90
30889;DHT22;51092;50.874;7.024;2024-01-15T04:07:32;1.70;99.90
30889;DHT22;51092;50.874;7.024;2024-01-15T04:08:34;1.70;99.90
30889;DHT22;51092;50.874;7.024;2024-01-15T04:09:36;1.70;99.90
30889;DHT22;51092;50.874;7.024;2024-01-15T04:10:38;1.70;99.90
30889;DHT22;51092;50.874;7.024;2024-01-15T04:11:39;1.70;99.90
30889;DHT22;51092;50.874;7.024;2024-01-15T04:12:42;1.80;99.90
30889;DHT22;51092;50.874;7.024;2024-01-15T04:13:43;1.90;99.90
30889;DHT22;51092;50.874;7.024;2024-01-15T04:14:45;1.80;99.90
30889;DHT22;51092;50.874;7.024;2024-01-15T04:15:47;1.70;99.90
30889;DHT22;51092;50.874;7.024;2024-01-15T04:16:49;1.80;99.90
30889;DHT22;51092;50.874;7.024;2024-01-15T04:17:52;1.80;99.90
30889;DHT22;51092;50.874;7.024;2024-01-15T04:20:06;1.80;99.90
30889;DHT22;51092;50.874;7.024;2024-01-15T04:21:09;1.80;99.90
30889;DHT22;51092;50.874;7.024;2024-01-15T04:22:10;1.70;99.90
30889;DHT22;51092;50.874;7.024;2024-01-15T04:23:13;1.70;99.90
30889;DHT22;51092;50.874;7.024;2024-01-15T04:24:14;1.70;99.90
30889;DHT22;51092;50.874;7.024;2024-01-15T04:25:19;1.70;99.90
30889;DHT22;51092;50.874;7.024;2024-01-15T04:26:20;1.70;99.90
30889;DHT22;51092;50.874;7.024;2024-01-15T04:27:23;1.70;99.90
30889;DHT22;51092;50.874;7.024;2024-01-15T04:28:25;1.70;99.90
30889;DHT22;51092;50.874;7.024;2024-01-15T04:29:28;1.70;99.90
30889;DHT22;51092;50.874;7.024;2024-01-15T04:30:29;1.80;99.90
30889;DHT22;51092;50.874;7.024;2024-01-15T04:31:32;1.70;99.90
30889;DHT22;51092;50.874;7.024;2024-01-15T04:32:33;1.80;99.90
30889;DHT22;51092;50.874;7.024;2024-01-15T04:33:36;1.70;99.90
30889;DHT22;51092;50.874;7.024;2024-01-15T04:34:37;1.70;99.90
30889;DHT22;51092;50.874;7.024;2024-01-15T04:35:39;1.70;99.90
30889;DHT22;51092;50.874;7.024;2024-01-15T04:36:41;1.70;99.90
30889;DHT22;51092;50.874;7.024;2024-01-15T04:37:43;1.70;99.90
30889;DHT22;51092;50.874;7.024;2024-01-15T04:38:46;1.70;99.90
30889;DHT22;51092;50.874;7.024;2024-01-15T04:39:48;1.60;99.90
30889;DHT22;51092;50.874;7.024;2024-01-15T04:40:50;1.60;99.90
30889;DHT22;51092;50.874;7.024;2024-01-15T04:41:51;1.70;99.90
30889;DHT22;51092;50.874;7.024;2024-01-15T04:42:54;1.70;99.90
30889;DHT22;51092;50.874;7.024;2024-01-15T04:43:56;1.70;99.90
30889;DHT22;51092;50.874;7.024;2024-01-15T04:45:01;1.60;99.90
30889;DHT22;51092;50.874;7.024;2024-01-15T04:46:05;1.60;99.90
30889;DHT22;51092;50.874;7.024;2024-01-15T04:47:08;1.70;99.90
30889;DHT22;51092;50.874;7.024;2024-01-15T04:48:09;1.70;99.90
30889;DHT22;51092;50.874;7.024;2024-01-15T04:49:11;1.70;99.90
30889;DHT22;51092;50.874;7.024;2024-01-15T04:50:12;1.70;99.90
30889;DHT22;51092;50.874;7.024;2024-01-15T04:51:14;1.70;99.90
30889;DHT22;51092;50.874;7.024;2024-01-15T04:52:15;1.70;99.90
30889;DHT22;51092;50.874;7.024;2024-01-15T04:53:17;1.70;99.90
30889;DHT22;51092;50.874;7.024;2024-01-15T04:54:19;1.70;99.90
30889;DHT22;51092;50.874;7.024;2024-01-15T04:55:21;1.70;99.90
30889;DHT22;51092;50.874;7.024;2024-01-15T04:56:23;1.70;99.90
30889;DHT22;51092;50.874;7.024;2024-01-15T04:57:25;1.80;99.90
30889;DHT22;51092;50.874;7.024;2024-01-15T04:58:27;1.80;99.90
30889;DHT22;51092;50.874;7.024;2024-01-15T04:59:30;1.80;99.90
30889;DHT22;51092;50.874;7.024;2024-01-15T05:00:32;1.80;99.90
30889;DHT22;51092;50.874;7.024;2024-01-15T05:01:34;1.80;99.90
30889;DHT22;51092;50.874;7.024;2024-01-15T05:02:36;1.80;99.90
30889;DHT22;51092;50.874;7.024;2024-01-15T05:03:38;1.90;99.90
30889;DHT22;51092;50.874;7.024;2024-01-15T05:04:40;1.80;99.90
30889;DHT22;51092;50.874;7.024;2024-01-15T05:05:42;1.80;99.90
30889;DHT22;51092;50.874;7.024;2024-01-15T05:06:44;1.90;99.90
30889;DHT22;51092;50.874;7.024;2024-01-15T05:07:47;2.00;99.90
30889;DHT22;51092;50.874;7.024;2024-01-15T05:08:49;2.00;99.90
30889;DHT22;51092;50.874;7.024;2024-01-15T05:09:53;2.00;99.90
30889;DHT22;51092;50.874;7.024;2024-01-15T05:10:53;2.10;99.90
30889;DHT22;51092;50.874;7.024;2024-01-15T05:11:55;2.10;99.90
30889;DHT22;51092;50.874;7.024;2024-01-15T05:12:56;2.00;99.90
30889;DHT22;51092;50.874;7.024;2024-01-15T05:13:59;2.10;99.90
30889;DHT22;51092;50.874;7.024;2024-01-15T05:15:02;2.00;99.90
30889;DHT22;51092;50.874;7.024;2024-01-15T05:16:04;2.00;99.90
30889;DHT22;51092;50.874;7.024;2024-01-15T05:17:06;2.00;99.90
30889;DHT22;51092;50.874;7.024;2024-01-15T05:18:08;2.00;99.90
30889;DHT22;51092;50.874;7.024;2024-01-15T05:19:10;2.10;99.90
30889;DHT22;51092;50.874;7.024;2024-01-15T05:20:13;2.20;99.90
30889;DHT22;51092;50.874;7.024;2024-01-15T05:21:15;2.10;99.90
30889;DHT22;51092;50.874;7.024;2024-01-15T05:22:17;2.20;99.90
30889;DHT22;51092;50.874;7.024;2024-01-15T05:23:18;2.30;99.90
30889;DHT22;51092;50.874;7.024;2024-01-15T05:24:21;2.20;99.90
30889;DHT22;51092;50.874;7.024;2024-01-15T05:25:22;2.10;99.90
30889;DHT22;51092;50.874;7.024;2024-01-15T05:26:24;2.10;99.90
30889;DHT22;51092;50.874;7.024;2024-01-15T05:27:32;2.10;99.90
30889;DHT22;51092;50.874;7.024;2024-01-15T05:28:34;2.00;99.90
30889;DHT22;51092;50.874;7.024;2024-01-15T05:29:36;2.00;99.90
30889;DHT22;51092;50.874;7.024;2024-01-15T05:30:39;2.10;99.90
30889;DHT22;51092;50.874;7.024;2024-01-15T05:31:41;2.10;99.90
30889;DHT22;51092;50.874;7.024;2024-01-15T05:32:43;2.00;99.90
30889;DHT22;51092;50.874;7.024;2024-01-15T05:33:45;2.00;99.90
30889;DHT22;51092;50.874;7.024;2024-01-15T05:34:47;2.00;99.90
30889;DHT22;51092;50.874;7.024;2024-01-15T05:35:48;2.00;99.90
30889;DHT22;51092;50.874;7.024;2024-01-15T05:36:51;2.00;99.90
30889;DHT22;51092;50.874;7.024;2024-01-15T05:37:52;2.00;99.90
30889;DHT22;51092;50.874;7.024;2024-01-15T05:38:54;2.10;99.90
30889;DHT22;51092;50.874;7.024;2024-01-15T05:39:55;2.10;99.90
30889;DHT22;51092;50.874;7.024;2024-01-15T05:40:57;2.20;99.90
30889;DHT22;51092;50.874;7.024;2024-01-15T05:41:58;2.20;99.90
30889;DHT22;51092;50.874;7.024;2024-01-15T05:43:00;2.20;99.90
30889;DHT22;51092;50.874;7.024;2024-01-15T05:44:01;2.20;99.90
30889;DHT22;51092;50.874;7.024;2024-01-15T05:45:04;2.20;99.90
30889;DHT22;51092;50.874;7.024;2024-01-15T05:46:06;2.10;99.90
30889;DHT22;51092;50.874;7.024;2024-01-15T05:47:09;2.10;99.90
30889;DHT22;51092;50.874;7.024;2024-01-15T05:48:11;2.10;99.90
30889;DHT22;51092;50.874;7.024;2024-01-15T05:49:14;2.10;99.90
30889;DHT22;51092;50.874;7.024;2024-01-15T05:50:15;2.10;99.90
30889;DHT22;51092;50.874;7.024;2024-01-15T05:51:18;2.10;99.90
30889;DHT22;51092;50.874;7.024;2024-01-15T05:52:19;2.10;99.90
30889;DHT22;51092;50.874;7.024;2024-01-15T05:53:23;2.20;99.90
30889;DHT22;51092;50.874;7.024;2024-01-15T05:54:24;2.10;99.90
30889;DHT22;51092;50.874;7.024;2024-01-15T05:55:26;2.10;99.90
30889;DHT22;51092;50.874;7.024;2024-01-15T05:56:28;2.10;99.90
30889;DHT22;51092;50.874;7.024;2024-01-15T05:57:30;2.10;99.90
30889;DHT22;51092;50.874;7.024;2024-01-15T05:58:32;2.10;99.90
30889;DHT22;51092;50.874;7.024;2024-01-15T05:59:34;2.10;99.90
30889;DHT22;51092;50.874;7.024;2024-01-15T06:00:37;2.20;99.90
30889;DHT22;51092;50.874;7.024;2024-01-15T06:01:41;2.20;99.90
30889;DHT22;51092;50.874;7.024;2024-01-15T06:02:42;2.10;99.90
30889;DHT22;51092;50.874;7.024;2024-01-15T06:03:45;2.10;99.90
30889;DHT22;51092;50.874;7.024;2024-01-15T06:04:46;2.10;99.90
30889;DHT22;51092;50.874;7.024;2024-01-15T06:05:49;2.10;99.90
30889;DHT22;51092;50.874;7.024;2024-01-15T06:06:50;2.10;99.90
30889;DHT22;51092;50.874;7.024;2024-01-15T06:07:53;2.10;99.90
30889;DHT22;51092;50.874;7.024;2024-01-15T06:08:54;2.10;99.90
30889;DHT22;51092;50.874;7.024;2024-01-15T06:09:57;2.10;99.90
30889;DHT22;51092;50.874;7.024;2024-01-15T06:10:58;2.10;99.90
30889;DHT22;51092;50.874;7.024;2024-01-15T06:12:01;2.10;99.90
30889;DHT22;51092;50.874;7.024;2024-01-15T06:13:03;2.10;99.90
30889;DHT22;51092;50.874;7.024;2024-01-15T06:14:06;2.10;99.90
30889;DHT22;51092;50.874;7.024;2024-01-15T06:15:08;2.10;99.90
30889;DHT22;51092;50.874;7.024;2024-01-15T06:16:14;2.10;99.90
30889;DHT22;51092;50.874;7.024;2024-01-15T06:17:17;2.10;99.90
30889;DHT22;51092;50.874;7.024;2024-01-15T06:18:20;2.20;99.90
30889;DHT22;51092;50.874;7.024;2024-01-15T06:19:21;2.10;99.90
30889;DHT22;51092;50.874;7.024;2024-01-15T06:20:24;2.10;99.90
30889;DHT22;51092;50.874;7.024;2024-01-15T06:21:25;2.10;99.90
30889;DHT22;51092;50.874;7.024;2024-01-15T06:22:27;2.10;99.90
30889;DHT22;51092;50.874;7.024;2024-01-15T06:23:29;2.10;99.90
30889;DHT22;51092;50.874;7.024;2024-01-15T06:24:31;2.00;99.90
30889;DHT22;51092;50.874;7.024;2024-01-15T06:25:33;2.10;99.90
30889;DHT22;51092;50.874;7.024;2024-01-15T06:26:35;2.10;99.90
30889;DHT22;51092;50.874;7.024;2024-01-15T06:27:37;2.20;99.90
30889;DHT22;51092;50.874;7.024;2024-01-15T06:28:39;2.10;99.90
30889;DHT22;51092;50.874;7.024;2024-01-15T06:29:45;2.10;99.90
30889;DHT22;51092;50.874;7.024;2024-01-15T06:30:49;2.20;99.90
30889;DHT22;51092;50.874;7.024;2024-01-15T06:31:51;2.10;99.90
30889;DHT22;51092;50.874;7.024;2024-01-15T06:32:55;2.10;99.90
30889;DHT22;51092;50.874;7.024;2024-01-15T06:33:56;2.10;99.90
30889;DHT22;51092;50.874;7.024;2024-01-15T06:34:59;2.20;99.90
30889;DHT22;51092;50.874;7.024;2024-01-15T06:36:00;2.20;99.90
30889;DHT22;51092;50.874;7.024;2024-01-15T06:37:02;2.30;99.90
30889;DHT22;51092;50.874;7.024;2024-01-15T06:38:04;2.20;99.90
30889;DHT22;51092;50.874;7.024;2024-01-15T06:39:06;2.20;99.90
30889;DHT22;51092;50.874;7.024;2024-01-15T06:40:09;2.20;99.90